Time,TemperatureF,DewpointF,PressureIn,WindDirection,WindDirectionDegrees,WindSpeedMPH,WindSpeedGustMPH,Humidity,HourlyPrecipIn,Conditions,Clouds,dailyrainin,SolarRadiationWatts/m^2,SoftwareType,DateUTC
2013-06-04 00:03:00,36.0,32.0,-100.00,NNW,337,4.0,6.0,86,0.00,,,0.00,0.000000,,2013-06-04 04:03:00,
2013-06-04 00:13:00,36.0,32.0,-100.00,NNW,337,4.0,6.0,86,0.00,,,0.00,0.000000,,2013-06-04 04:13:00,
2013-06-04 00:33:00,34.0,32.0,-100.00,SSW,211,3.0,6.0,93,0.00,,,0.00,0.000000,,2013-06-04 04:33:00,
2013-06-04 00:42:00,34.0,32.0,-100.00,SSW,211,3.0,6.0,93,0.00,,,0.00,0.000000,,2013-06-04 04:42:00,
2013-06-04 00:53:00,34.0,32.0,-100.00,SSW,211,3.0,6.0,93,0.00,,,0.00,0.000000,,2013-06-04 04:53:00,
2013-06-04 01:03:00,34.0,32.0,-100.00,SSW,211,3.0,6.0,93,0.00,,,0.00,0.000000,,2013-06-04 05:03:00,
2013-06-04 01:12:00,34.0,32.0,-100.00,SSW,211,3.0,6.0,93,0.00,,,0.00,0.000000,,2013-06-04 05:12:00,
2013-06-04 01:32:00,32.0,30.0,-100.00,South,181,2.0,3.0,94,0.00,,,0.00,0.000000,,2013-06-04 05:32:00,
2013-06-04 01:42:00,32.0,30.0,-100.00,South,181,2.0,3.0,94,0.00,,,0.00,0.000000,,2013-06-04 05:42:00,
2013-06-04 01:52:00,32.0,30.0,-100.00,South,181,2.0,3.0,94,0.00,,,0.00,0.000000,,2013-06-04 05:52:00,
2013-06-04 02:02:00,32.0,30.0,-100.00,South,181,2.0,3.0,94,0.00,,,0.00,0.000000,,2013-06-04 06:02:00,
2013-06-04 02:12:00,32.0,30.0,-100.00,South,181,2.0,3.0,94,0.00,,,0.00,0.000000,,2013-06-04 06:12:00,
2013-06-04 02:32:00,33.0,31.0,-100.00,WNW,298,3.0,5.0,91,0.00,,,0.00,0.000000,,2013-06-04 06:32:00,
2013-06-04 02:42:00,33.0,31.0,-100.00,WNW,298,3.0,5.0,91,0.00,,,0.00,0.000000,,2013-06-04 06:42:00,
2013-06-04 02:52:00,33.0,31.0,-100.00,WNW,298,3.0,5.0,91,0.00,,,0.00,0.000000,,2013-06-04 06:52:00,
2013-06-04 03:02:00,33.0,31.0,-100.00,WNW,298,3.0,5.0,91,0.00,,,0.00,0.000000,,2013-06-04 07:02:00,
2013-06-04 03:13:00,33.0,31.0,-100.00,WNW,298,3.0,5.0,91,0.00,,,0.00,0.000000,,2013-06-04 07:13:00,
2013-06-04 03:32:00,33.0,31.0,-100.00,West,280,4.0,5.0,93,0.00,,,0.00,0.000000,,2013-06-04 07:32:00,
2013-06-04 03:42:00,33.0,31.0,-100.00,West,280,4.0,5.0,93,0.00,,,0.00,0.000000,,2013-06-04 07:42:00,
2013-06-04 03:52:00,33.0,31.0,-100.00,West,280,4.0,5.0,93,0.00,,,0.00,0.000000,,2013-06-04 07:52:00,
2013-06-04 04:02:00,33.0,31.0,-100.00,West,280,4.0,5.0,93,0.00,,,0.00,0.000000,,2013-06-04 08:02:00,
2013-06-04 04:12:00,33.0,31.0,-100.00,West,280,4.0,5.0,93,0.00,,,0.00,0.000000,,2013-06-04 08:12:00,
2013-06-04 04:32:00,32.0,29.0,-100.00,NW,308,3.0,5.0,87,0.00,,,0.00,0.000000,,2013-06-04 08:32:00,
2013-06-04 04:42:00,32.0,29.0,-100.00,NW,308,3.0,5.0,87,0.00,,,0.00,0.000000,,2013-06-04 08:42:00,
2013-06-04 04:52:00,32.0,29.0,-100.00,NW,308,3.0,5.0,87,0.00,,,0.00,0.000000,,2013-06-04 08:52:00,
2013-06-04 05:02:00,32.0,29.0,-100.00,NW,308,3.0,5.0,87,0.00,,,0.00,0.000000,,2013-06-04 09:02:00,
2013-06-04 05:12:00,32.0,29.0,-100.00,NW,308,3.0,5.0,87,0.00,,,0.00,0.000000,,2013-06-04 09:12:00,
2013-06-04 05:43:00,31.0,28.0,-100.00,NW,309,1.0,6.0,88,0.00,,,0.00,0.000000,,2013-06-04 09:43:00,
2013-06-04 05:53:00,31.0,28.0,-100.00,NW,309,1.0,6.0,88,0.00,,,0.00,0.000000,,2013-06-04 09:53:00,
2013-06-04 06:03:00,31.0,28.0,-100.00,NW,309,1.0,6.0,88,0.00,,,0.00,0.000000,,2013-06-04 10:03:00,
2013-06-04 06:12:00,31.0,28.0,-100.00,NW,309,1.0,6.0,88,0.00,,,0.00,0.000000,,2013-06-04 10:12:00,
2013-06-04 06:33:00,32.0,30.0,-100.00,WSW,243,1.0,4.0,92,0.00,,,0.00,6.000000,,2013-06-04 10:33:00,
2013-06-04 06:42:00,32.0,30.0,-100.00,WSW,243,1.0,4.0,92,0.00,,,0.00,6.000000,,2013-06-04 10:42:00,
2013-06-04 06:53:00,32.0,30.0,-100.00,WSW,243,1.0,4.0,92,0.00,,,0.00,6.000000,,2013-06-04 10:53:00,
2013-06-04 07:02:00,32.0,30.0,-100.00,WSW,243,1.0,4.0,92,0.00,,,0.00,6.000000,,2013-06-04 11:02:00,
2013-06-04 07:12:00,32.0,30.0,-100.00,WSW,243,1.0,4.0,92,0.00,,,0.00,6.000000,,2013-06-04 11:12:00,
2013-06-04 07:32:00,39.0,32.0,-100.00,NW,318,2.0,3.0,76,0.00,,,0.00,105.000000,,2013-06-04 11:32:00,
2013-06-04 07:43:00,39.0,32.0,-100.00,NW,318,2.0,3.0,76,0.00,,,0.00,105.000000,,2013-06-04 11:43:00,
2013-06-04 07:52:00,39.0,32.0,-100.00,NW,318,2.0,3.0,76,0.00,,,0.00,105.000000,,2013-06-04 11:52:00,
2013-06-04 08:02:00,39.0,32.0,-100.00,NW,318,2.0,3.0,76,0.00,,,0.00,105.000000,,2013-06-04 12:02:00,
2013-06-04 08:12:00,39.0,32.0,-100.00,NW,318,2.0,3.0,76,0.00,,,0.00,105.000000,,2013-06-04 12:12:00,
2013-06-04 08:42:00,47.0,37.0,-100.00,WNW,294,1.0,4.0,67,0.00,,,0.00,293.000000,,2013-06-04 12:42:00,
2013-06-04 08:53:00,47.0,37.0,-100.00,WNW,294,1.0,4.0,67,0.00,,,0.00,293.000000,,2013-06-04 12:53:00,
2013-06-04 09:03:00,47.0,37.0,-100.00,WNW,294,1.0,4.0,67,0.00,,,0.00,293.000000,,2013-06-04 13:03:00,
2013-06-04 09:12:00,47.0,37.0,-100.00,WNW,294,1.0,4.0,67,0.00,,,0.00,293.000000,,2013-06-04 13:12:00,
2013-06-04 09:32:00,52.0,39.0,-100.00,West,270,3.0,5.0,60,0.00,,,0.00,497.000000,,2013-06-04 13:32:00,
2013-06-04 09:42:00,52.0,39.0,-100.00,West,270,3.0,5.0,60,0.00,,,0.00,497.000000,,2013-06-04 13:42:00,
2013-06-04 09:52:00,52.0,39.0,-100.00,West,270,3.0,5.0,60,0.00,,,0.00,497.000000,,2013-06-04 13:52:00,
2013-06-04 10:02:00,52.0,39.0,-100.00,West,270,3.0,5.0,60,0.00,,,0.00,497.000000,,2013-06-04 14:02:00,
2013-06-04 10:12:00,52.0,39.0,-100.00,West,270,3.0,5.0,60,0.00,,,0.00,497.000000,,2013-06-04 14:12:00,
2013-06-04 10:32:00,58.0,41.0,-100.00,West,278,3.0,5.0,53,0.00,,,0.00,729.000000,,2013-06-04 14:32:00,
2013-06-04 10:43:00,58.0,41.0,-100.00,West,278,3.0,5.0,53,0.00,,,0.00,729.000000,,2013-06-04 14:43:00,
2013-06-04 10:52:00,58.0,41.0,-100.00,West,278,3.0,5.0,53,0.00,,,0.00,729.000000,,2013-06-04 14:52:00,
2013-06-04 11:02:00,58.0,41.0,-100.00,West,278,3.0,5.0,53,0.00,,,0.00,729.000000,,2013-06-04 15:02:00,
2013-06-04 11:12:00,58.0,41.0,-100.00,West,278,3.0,5.0,53,0.00,,,0.00,729.000000,,2013-06-04 15:12:00,
2013-06-04 11:33:00,62.0,40.0,-100.00,NNE,14,4.0,6.0,45,0.00,,,0.00,892.000000,,2013-06-04 15:33:00,
2013-06-04 11:42:00,62.0,40.0,-100.00,NNE,14,4.0,6.0,45,0.00,,,0.00,892.000000,,2013-06-04 15:42:00,
2013-06-04 11:53:00,62.0,40.0,-100.00,NNE,14,4.0,6.0,45,0.00,,,0.00,892.000000,,2013-06-04 15:53:00,
2013-06-04 12:03:00,62.0,40.0,-100.00,NNE,14,4.0,6.0,45,0.00,,,0.00,892.000000,,2013-06-04 16:03:00,
2013-06-04 12:13:00,62.0,40.0,-100.00,NNE,14,4.0,6.0,45,0.00,,,0.00,892.000000,,2013-06-04 16:13:00,
2013-06-04 12:33:00,66.0,39.0,-100.00,WSW,253,3.0,8.0,37,0.00,,,0.00,998.000000,,2013-06-04 16:33:00,
2013-06-04 12:42:00,66.0,39.0,-100.00,WSW,253,3.0,8.0,37,0.00,,,0.00,998.000000,,2013-06-04 16:42:00,
2013-06-04 12:53:00,66.0,39.0,-100.00,WSW,253,3.0,8.0,37,0.00,,,0.00,998.000000,,2013-06-04 16:53:00,
2013-06-04 13:03:00,66.0,39.0,-100.00,WSW,253,3.0,8.0,37,0.00,,,0.00,998.000000,,2013-06-04 17:03:00,
2013-06-04 13:12:00,66.0,39.0,-100.00,WSW,253,3.0,8.0,37,0.00,,,0.00,998.000000,,2013-06-04 17:12:00,
2013-06-04 13:33:00,67.0,38.0,-100.00,North,352,6.0,12.0,35,0.00,,,0.00,1073.000000,,2013-06-04 17:33:00,
2013-06-04 13:42:00,67.0,38.0,-100.00,North,352,6.0,12.0,35,0.00,,,0.00,1073.000000,,2013-06-04 17:42:00,
2013-06-04 13:52:00,67.0,38.0,-100.00,North,352,6.0,12.0,35,0.00,,,0.00,1073.000000,,2013-06-04 17:52:00,
2013-06-04 14:02:00,67.0,38.0,-100.00,North,352,6.0,12.0,35,0.00,,,0.00,1073.000000,,2013-06-04 18:02:00,
2013-06-04 14:12:00,67.0,38.0,-100.00,North,352,6.0,12.0,35,0.00,,,0.00,1073.000000,,2013-06-04 18:12:00,
2013-06-04 14:32:00,66.0,34.0,-100.00,NW,309,7.0,12.0,30,0.00,,,0.00,985.000000,,2013-06-04 18:32:00,
2013-06-04 14:42:00,66.0,34.0,-100.00,NW,309,7.0,12.0,30,0.00,,,0.00,985.000000,,2013-06-04 18:42:00,
2013-06-04 14:53:00,66.0,34.0,-100.00,NW,309,7.0,12.0,30,0.00,,,0.00,985.000000,,2013-06-04 18:53:00,
2013-06-04 15:02:00,66.0,34.0,-100.00,NW,309,7.0,12.0,30,0.00,,,0.00,985.000000,,2013-06-04 19:02:00,
2013-06-04 15:12:00,66.0,34.0,-100.00,NW,309,7.0,12.0,30,0.00,,,0.00,985.000000,,2013-06-04 19:12:00,
2013-06-04 15:33:00,66.0,33.0,-100.00,North,350,6.0,12.0,29,0.00,,,0.00,821.000000,,2013-06-04 19:33:00,
2013-06-04 15:42:00,66.0,33.0,-100.00,North,350,6.0,12.0,29,0.00,,,0.00,821.000000,,2013-06-04 19:42:00,
2013-06-04 15:52:00,66.0,33.0,-100.00,North,350,6.0,12.0,29,0.00,,,0.00,821.000000,,2013-06-04 19:52:00,
2013-06-04 16:03:00,66.0,33.0,-100.00,North,350,6.0,12.0,29,0.00,,,0.00,821.000000,,2013-06-04 20:03:00,
2013-06-04 16:13:00,66.0,33.0,-100.00,North,350,6.0,12.0,29,0.00,,,0.00,821.000000,,2013-06-04 20:13:00,
2013-06-04 16:32:00,66.0,33.0,-100.00,NNW,338,6.0,11.0,29,0.00,,,0.00,685.000000,,2013-06-04 20:32:00,
2013-06-04 16:42:00,66.0,33.0,-100.00,NNW,338,6.0,11.0,29,0.00,,,0.00,685.000000,,2013-06-04 20:42:00,
2013-06-04 16:53:00,66.0,33.0,-100.00,NNW,338,6.0,11.0,29,0.00,,,0.00,685.000000,,2013-06-04 20:53:00,
2013-06-04 17:02:00,66.0,33.0,-100.00,NNW,338,6.0,11.0,29,0.00,,,0.00,685.000000,,2013-06-04 21:02:00,
2013-06-04 17:12:00,66.0,33.0,-100.00,NNW,338,6.0,11.0,29,0.00,,,0.00,685.000000,,2013-06-04 21:12:00,
2013-06-04 17:33:00,66.0,33.0,-100.00,NNW,335,5.0,11.0,29,0.00,,,0.00,590.000000,,2013-06-04 21:33:00,
2013-06-04 17:42:00,66.0,33.0,-100.00,NNW,335,5.0,11.0,29,0.00,,,0.00,590.000000,,2013-06-04 21:42:00,
2013-06-04 17:53:00,66.0,33.0,-100.00,NNW,335,5.0,11.0,29,0.00,,,0.00,590.000000,,2013-06-04 21:53:00,
2013-06-04 18:02:00,66.0,33.0,-100.00,NNW,335,5.0,11.0,29,0.00,,,0.00,590.000000,,2013-06-04 22:02:00,
2013-06-04 18:13:00,66.0,33.0,-100.00,NNW,335,5.0,11.0,29,0.00,,,0.00,590.000000,,2013-06-04 22:13:00,
2013-06-04 18:33:00,62.0,33.0,-100.00,North,352,5.0,12.0,34,0.00,,,0.00,452.000000,,2013-06-04 22:33:00,
2013-06-04 18:42:00,62.0,33.0,-100.00,North,352,5.0,12.0,34,0.00,,,0.00,452.000000,,2013-06-04 22:42:00,
2013-06-04 18:52:00,62.0,33.0,-100.00,North,352,5.0,12.0,34,0.00,,,0.00,452.000000,,2013-06-04 22:52:00,
2013-06-04 19:02:00,62.0,33.0,-100.00,North,352,5.0,12.0,34,0.00,,,0.00,452.000000,,2013-06-04 23:02:00,
2013-06-04 19:12:00,62.0,33.0,-100.00,North,352,5.0,12.0,34,0.00,,,0.00,452.000000,,2013-06-04 23:12:00,
2013-06-04 19:32:00,63.0,36.0,-100.00,NNW,330,3.0,7.0,36,0.00,,,0.00,309.000000,,2013-06-04 23:32:00,
2013-06-04 19:42:00,63.0,36.0,-100.00,NNW,330,3.0,7.0,36,0.00,,,0.00,309.000000,,2013-06-04 23:42:00,
2013-06-04 19:52:00,63.0,36.0,-100.00,NNW,330,3.0,7.0,36,0.00,,,0.00,309.000000,,2013-06-04 23:52:00,
2013-06-04 20:02:00,63.0,36.0,-100.00,NNW,330,3.0,7.0,36,0.00,,,0.00,309.000000,,2013-06-05 00:02:00,
2013-06-04 20:12:00,63.0,36.0,-100.00,NNW,330,3.0,7.0,36,0.00,,,0.00,309.000000,,2013-06-05 00:12:00,
2013-06-04 20:42:00,62.0,38.0,-100.00,NNW,333,3.0,7.0,41,0.00,,,0.00,272.000000,,2013-06-05 00:42:00,
2013-06-04 20:52:00,62.0,38.0,-100.00,NNW,333,3.0,7.0,41,0.00,,,0.00,272.000000,,2013-06-05 00:52:00,
2013-06-04 21:02:00,62.0,38.0,-100.00,NNW,333,3.0,7.0,41,0.00,,,0.00,272.000000,,2013-06-05 01:02:00,
2013-06-04 21:12:00,62.0,38.0,-100.00,NNW,333,3.0,7.0,41,0.00,,,0.00,272.000000,,2013-06-05 01:12:00,
2013-06-04 21:32:00,53.0,35.0,-100.00,WNW,296,3.0,6.0,51,0.00,,,0.00,55.000000,,2013-06-05 01:32:00,
2013-06-04 21:42:00,53.0,35.0,-100.00,WNW,296,3.0,6.0,51,0.00,,,0.00,55.000000,,2013-06-05 01:42:00,
2013-06-04 21:52:00,53.0,35.0,-100.00,WNW,296,3.0,6.0,51,0.00,,,0.00,55.000000,,2013-06-05 01:52:00,
2013-06-04 22:02:00,53.0,35.0,-100.00,WNW,296,3.0,6.0,51,0.00,,,0.00,55.000000,,2013-06-05 02:02:00,
2013-06-04 22:12:00,53.0,35.0,-100.00,WNW,296,3.0,6.0,51,0.00,,,0.00,55.000000,,2013-06-05 02:12:00,
2013-06-04 22:32:00,52.0,33.0,-100.00,North,350,3.0,5.0,49,0.00,,,0.00,1.000000,,2013-06-05 02:32:00,
2013-06-04 22:42:00,52.0,33.0,-100.00,North,350,3.0,5.0,49,0.00,,,0.00,1.000000,,2013-06-05 02:42:00,
2013-06-04 22:52:00,52.0,33.0,-100.00,North,350,3.0,5.0,49,0.00,,,0.00,1.000000,,2013-06-05 02:52:00,
2013-06-04 23:02:00,52.0,33.0,-100.00,North,350,3.0,5.0,49,0.00,,,0.00,1.000000,,2013-06-05 03:02:00,
2013-06-04 23:12:00,52.0,33.0,-100.00,North,350,3.0,5.0,49,0.00,,,0.00,1.000000,,2013-06-05 03:12:00,
2013-06-04 23:33:00,49.0,36.0,-100.00,West,279,4.0,6.0,60,0.00,,,0.00,0.000000,,2013-06-05 03:33:00,
2013-06-04 23:43:00,49.0,36.0,-100.00,West,279,4.0,6.0,60,0.00,,,0.00,0.000000,,2013-06-05 03:43:00,
2013-06-04 23:53:00,49.0,36.0,-100.00,West,279,4.0,6.0,60,0.00,,,0.00,0.000000,,2013-06-05 03:53:00,